createdAt,value
2022-09-04T00:01:01.281Z,0.60
2022-09-04T00:05:56.849Z,0.60
2022-09-04T00:11:01.574Z,0.63
2022-09-04T00:16:05.319Z,0.70
2022-09-04T00:21:39.916Z,0.50
2022-09-04T00:26:50.339Z,0.60
2022-09-04T00:31:49.545Z,1.00
2022-09-04T00:36:50.071Z,0.50
2022-09-04T00:41:59.837Z,0.55
2022-09-04T00:47:25.748Z,0.68
2022-09-04T00:53:02.467Z,0.70
2022-09-04T00:58:00.469Z,0.70
2022-09-04T01:03:07.275Z,0.88
2022-09-04T01:08:07.635Z,0.70
2022-09-04T01:13:24.430Z,0.63
2022-09-04T01:18:29.791Z,0.63
2022-09-04T01:23:45.124Z,0.85
2022-09-04T01:28:55.202Z,0.60
2022-09-04T01:34:05.133Z,0.80
2022-09-04T01:38:58.561Z,0.60
2022-09-04T01:43:51.853Z,0.70
2022-09-04T01:48:55.724Z,0.80
2022-09-04T01:54:03.895Z,0.57
2022-09-04T01:59:01.277Z,1.05
2022-09-04T02:03:56.229Z,0.70
2022-09-04T02:09:15.946Z,1.02
2022-09-04T02:14:09.350Z,0.68
2022-09-04T02:19:25.208Z,0.80
2022-09-04T02:24:35.189Z,0.80
2022-09-04T02:29:50.046Z,0.70
2022-09-04T02:35:16.993Z,1.00
2022-09-04T02:40:11.995Z,0.75
2022-09-04T02:45:34.296Z,1.00
2022-09-04T02:51:04.818Z,1.10
2022-09-04T02:56:16.579Z,0.88
2022-09-04T03:01:24.826Z,1.00
2022-09-04T03:06:29.204Z,1.00
2022-09-04T03:11:39.114Z,1.25
2022-09-04T03:16:55.676Z,1.23
2022-09-04T03:22:12.345Z,1.38
2022-09-04T03:27:10.689Z,1.65
2022-09-04T03:32:15.476Z,1.60
2022-09-04T03:37:20.861Z,2.00
2022-09-04T03:42:28.408Z,1.75
2022-09-04T03:47:28.870Z,2.03
2022-09-04T03:52:51.160Z,1.88
2022-09-04T03:57:42.705Z,2.17
2022-09-04T04:03:15.529Z,2.03
2022-09-04T04:08:27.521Z,2.05
2022-09-04T04:13:33.391Z,2.50
2022-09-04T04:18:53.762Z,2.28
2022-09-04T04:24:39.098Z,2.78
2022-09-04T04:30:17.375Z,2.83
2022-09-04T04:35:29.417Z,3.57
2022-09-04T04:40:20.976Z,4.22
2022-09-04T04:45:50.984Z,4.47
2022-09-04T04:51:00.952Z,4.97
2022-09-04T04:56:36.441Z,5.80
2022-09-04T05:01:34.414Z,4.78
2022-09-04T05:06:37.000Z,5.50
2022-09-04T05:11:39.911Z,5.28
2022-09-04T05:17:00.080Z,5.10
2022-09-04T05:22:33.583Z,5.72
2022-09-04T05:27:41.673Z,6.00
2022-09-04T05:32:35.877Z,5.13
2022-09-04T05:37:46.212Z,4.93
2022-09-04T05:42:56.879Z,5.57
2022-09-04T05:48:07.307Z,5.68
2022-09-04T05:53:26.130Z,6.13
2022-09-04T05:58:40.592Z,4.70
2022-09-04T06:03:55.318Z,5.47
2022-09-04T06:09:31.589Z,4.88
2022-09-04T06:14:31.892Z,5.35
2022-09-04T06:19:54.440Z,5.88
2022-09-04T06:25:04.825Z,5.47
2022-09-04T06:30:14.561Z,5.78
2022-09-04T06:35:25.205Z,5.25
2022-09-04T06:40:26.045Z,5.18
2022-09-04T06:45:42.236Z,5.50
2022-09-04T06:50:49.770Z,6.72
2022-09-04T06:55:49.799Z,7.13
2022-09-04T07:00:53.521Z,7.00
2022-09-04T07:06:08.614Z,6.68
2022-09-04T07:11:21.054Z,5.63
2022-09-04T07:16:39.148Z,5.25
2022-09-04T07:21:40.166Z,5.65
2022-09-04T07:26:53.358Z,4.05
2022-09-04T07:32:02.565Z,4.50
2022-09-04T07:37:25.956Z,3.75
2022-09-04T07:42:50.867Z,2.53
2022-09-04T07:48:04.816Z,2.85
2022-09-04T07:53:24.269Z,3.28
2022-09-04T07:58:22.049Z,3.03
2022-09-04T08:03:54.411Z,3.53
2022-09-04T08:08:49.105Z,3.92
2022-09-04T08:14:06.384Z,3.33
2022-09-04T08:19:09.449Z,2.65
2022-09-04T08:24:21.726Z,2.55
2022-09-04T08:29:40.244Z,2.55
2022-09-04T08:34:53.155Z,1.75
2022-09-04T08:40:24.141Z,1.92
2022-09-04T08:45:48.302Z,1.42
2022-09-04T08:51:08.264Z,1.42
2022-09-04T08:56:18.710Z,1.35
2022-09-04T09:01:38.520Z,1.00
2022-09-04T09:06:51.677Z,0.90
2022-09-04T09:12:09.125Z,0.60
2022-09-04T09:17:13.237Z,0.70
2022-09-04T09:22:17.084Z,0.80
2022-09-04T09:27:11.846Z,0.85
2022-09-04T09:32:28.971Z,1.25
2022-09-04T09:37:38.966Z,0.90
2022-09-04T09:42:50.919Z,0.95
2022-09-04T09:48:11.501Z,0.90
2022-09-04T09:53:32.872Z,0.52
2022-09-04T09:58:33.863Z,0.85
2022-09-04T10:03:31.888Z,0.68
2022-09-04T10:08:54.198Z,0.80
2022-09-04T10:13:45.854Z,0.60
2022-09-04T10:19:04.865Z,0.50
2022-09-04T10:24:23.070Z,0.77
2022-09-04T10:34:55.482Z,0.82
2022-09-04T10:40:11.519Z,1.15
2022-09-04T10:45:41.492Z,0.80
2022-09-04T10:51:27.438Z,0.70
2022-09-04T10:56:35.338Z,0.80
2022-09-04T11:01:41.041Z,0.70
2022-09-04T11:06:55.478Z,0.60
2022-09-04T11:12:17.609Z,0.50
2022-09-04T11:17:28.705Z,0.57
2022-09-04T11:22:54.946Z,0.68
2022-09-04T11:28:13.113Z,0.65
2022-09-04T11:33:37.484Z,0.60
2022-09-04T11:38:44.162Z,0.90
2022-09-04T11:43:44.871Z,0.90
2022-09-04T11:48:43.154Z,0.80
2022-09-04T11:53:37.498Z,0.50
2022-09-04T11:58:56.562Z,0.80
2022-09-04T12:04:06.851Z,0.65
2022-09-04T12:09:26.073Z,0.52
2022-09-04T12:14:29.189Z,0.80
2022-09-04T12:20:08.078Z,0.57
2022-09-04T12:25:33.018Z,1.00
2022-09-04T12:30:53.315Z,0.60
2022-09-04T12:36:18.594Z,0.60
2022-09-04T12:41:28.788Z,0.70
2022-09-04T12:46:48.779Z,0.60
2022-09-04T12:51:49.844Z,0.70
2022-09-04T12:57:00.904Z,0.50
2022-09-04T13:02:01.812Z,0.60
2022-09-04T13:07:22.870Z,0.60
2022-09-04T13:12:48.919Z,0.82
2022-09-04T13:18:08.354Z,0.60
2022-09-04T13:23:16.254Z,0.40
2022-09-04T13:28:35.653Z,0.40
2022-09-04T13:33:51.294Z,0.57
2022-09-04T13:39:07.162Z,0.40
2022-09-04T13:44:05.689Z,0.50
2022-09-04T13:49:07.198Z,0.70
2022-09-04T13:54:17.103Z,0.50
2022-09-04T13:59:16.301Z,0.52
2022-09-04T14:04:13.306Z,0.90
2022-09-04T14:09:06.340Z,0.65
2022-09-04T14:14:12.103Z,0.50
2022-09-04T14:19:20.208Z,0.55
2022-09-04T14:24:44.223Z,1.15
2022-09-04T14:29:44.438Z,0.52
2022-09-04T14:34:50.214Z,0.70
2022-09-04T14:39:52.447Z,0.70
2022-09-04T14:45:01.663Z,0.60
2022-09-04T14:49:56.327Z,0.70
2022-09-04T14:54:53.758Z,0.60
2022-09-04T14:59:57.060Z,0.50
2022-09-04T15:05:00.124Z,0.68
2022-09-04T15:09:53.612Z,0.85
2022-09-04T15:14:50.374Z,0.70
2022-09-04T15:19:55.182Z,0.90
2022-09-04T15:24:58.492Z,0.60
2022-09-04T15:29:53.402Z,0.70
2022-09-04T15:34:45.115Z,0.82
2022-09-04T15:39:46.022Z,0.75
2022-09-04T15:44:47.485Z,0.70
2022-09-04T15:50:04.530Z,0.80
2022-09-04T15:55:22.169Z,1.00
2022-09-04T16:00:20.568Z,0.93
2022-09-04T16:05:41.584Z,1.00
2022-09-04T16:10:42.242Z,0.88
2022-09-04T16:15:45.562Z,0.80
2022-09-04T16:20:52.876Z,0.63
2022-09-04T16:25:49.950Z,0.60
2022-09-04T16:30:59.842Z,1.33
2022-09-04T16:35:57.908Z,0.90
2022-09-04T16:40:58.695Z,0.70
2022-09-04T16:46:07.156Z,0.90
2022-09-04T16:51:09.870Z,0.80
2022-09-04T16:56:36.995Z,0.80
2022-09-04T17:01:46.929Z,1.25
2022-09-04T17:07:15.889Z,0.82
2022-09-04T17:12:19.692Z,0.82
2022-09-04T17:17:31.331Z,0.93
2022-09-04T17:29:02.595Z,0.70
2022-09-04T17:29:19.068Z,0.85
2022-09-04T17:37:18.875Z,1.02
2022-09-04T17:40:50.436Z,1.40
2022-09-04T17:44:53.817Z,1.20
2022-09-04T17:49:55.525Z,0.90
2022-09-04T17:54:49.383Z,0.90
2022-09-04T17:59:53.456Z,0.80
2022-09-04T18:05:24.109Z,1.25
2022-09-04T18:10:31.333Z,0.77
2022-09-04T18:15:35.006Z,1.17
2022-09-04T18:20:52.155Z,1.10
2022-09-04T18:25:57.939Z,0.80
2022-09-04T18:37:11.546Z,1.10
2022-09-04T18:37:23.606Z,1.25
2022-09-04T18:49:52.769Z,0.93
2022-09-04T18:50:32.529Z,1.08
2022-09-04T18:53:06.422Z,1.05
2022-09-04T18:58:13.593Z,1.05
2022-09-04T19:03:37.892Z,1.25
2022-09-04T19:08:38.226Z,1.13
2022-09-04T19:13:48.880Z,1.10
2022-09-04T19:18:49.404Z,1.55
2022-09-04T19:23:50.382Z,1.38
2022-09-04T19:28:52.508Z,1.20
2022-09-04T19:34:03.922Z,1.15
2022-09-04T19:45:57.036Z,1.10
2022-09-04T19:46:15.506Z,1.77
2022-09-04T19:53:21.576Z,1.35
2022-09-04T19:55:24.320Z,1.77
2022-09-04T20:00:33.753Z,1.00
2022-09-04T20:05:34.173Z,1.02
2022-09-04T20:10:59.309Z,1.52
2022-09-04T20:16:31.137Z,0.90
2022-09-04T20:21:43.705Z,1.67
2022-09-04T20:26:48.566Z,1.23
2022-09-04T20:32:41.532Z,0.80
2022-09-04T20:37:35.226Z,1.75
2022-09-04T20:42:43.365Z,1.08
2022-09-04T20:53:00.038Z,1.25
2022-09-04T20:53:08.465Z,1.17
2022-09-04T21:02:37.854Z,1.30
2022-09-04T21:03:57.084Z,1.27
2022-09-04T21:09:20.288Z,1.15
2022-09-04T21:14:43.521Z,1.30
2022-09-04T21:19:59.107Z,1.23
2022-09-04T21:24:56.514Z,1.52
2022-09-04T21:29:59.552Z,1.60
2022-09-04T21:35:13.262Z,1.23
2022-09-04T21:40:33.619Z,1.08
2022-09-04T21:45:44.800Z,1.17
2022-09-04T21:50:58.734Z,1.00
2022-09-04T22:02:29.569Z,1.88
2022-09-04T22:02:40.290Z,1.20
2022-09-04T22:09:59.127Z,1.10
2022-09-04T22:13:28.701Z,1.15
2022-09-04T22:18:00.193Z,0.95
2022-09-04T22:23:21.653Z,1.42
2022-09-04T22:28:32.078Z,1.50
2022-09-04T22:33:29.649Z,1.55
2022-09-04T22:38:42.269Z,0.85
2022-09-04T22:43:45.288Z,1.10
2022-09-04T22:49:15.867Z,1.15
2022-09-04T22:59:28.060Z,0.75
2022-09-04T23:04:28.751Z,0.90
2022-09-04T23:13:53.397Z,1.10
2022-09-04T23:15:08.848Z,0.98
2022-09-04T23:26:32.227Z,0.95
2022-09-04T23:26:41.675Z,0.80
2022-09-04T23:31:29.284Z,1.00
2022-09-04T23:36:29.687Z,0.88
2022-09-04T23:42:06.647Z,0.70
2022-09-04T23:47:48.733Z,1.35
2022-09-04T23:52:52.220Z,0.85
2022-09-04T23:58:25.639Z,1.40
